createdAt,value
2022-09-26T00:00:22.679Z,1.38
2022-09-26T00:05:24.340Z,3.42
2022-09-26T00:10:25.991Z,3.63
2022-09-26T00:15:27.588Z,1.67
2022-09-26T00:20:29.149Z,1.85
2022-09-26T00:25:30.835Z,2.88
2022-09-26T00:30:32.525Z,3.47
2022-09-26T00:35:34.289Z,1.65
2022-09-26T00:40:36.040Z,2.72
2022-09-26T00:45:37.743Z,2.28
2022-09-26T00:50:48.634Z,3.72
2022-09-26T00:55:55.995Z,1.95
2022-09-26T01:01:00.925Z,3.95
2022-09-26T01:06:03.183Z,3.15
2022-09-26T01:11:05.792Z,2.90
2022-09-26T01:16:08.981Z,1.58
2022-09-26T01:21:42.964Z,2.88
2022-09-26T01:27:11.897Z,4.13
2022-09-26T01:32:54.362Z,1.52
2022-09-26T01:38:48.075Z,1.70
2022-09-26T01:44:01.407Z,3.00
2022-09-26T01:49:18.455Z,1.80
2022-09-26T01:54:27.005Z,2.88
2022-09-26T01:59:34.687Z,3.05
2022-09-26T02:04:41.935Z,3.03
2022-09-26T02:09:48.991Z,3.05
2022-09-26T02:14:54.472Z,2.05
2022-09-26T02:20:03.319Z,1.80
2022-09-26T02:25:05.423Z,4.33
2022-09-26T02:30:07.768Z,3.70
2022-09-26T02:35:30.123Z,3.15
2022-09-26T02:40:51.751Z,2.22
2022-09-26T02:46:24.472Z,5.57
2022-09-26T02:51:38.318Z,2.95
2022-09-26T02:57:10.395Z,2.15
2022-09-26T03:02:19.741Z,2.78
2022-09-26T03:07:51.840Z,5.50
2022-09-26T03:12:55.159Z,4.15
2022-09-26T03:17:59.287Z,3.97
2022-09-26T03:23:03.146Z,3.90
2022-09-26T03:28:06.103Z,1.73
2022-09-26T03:33:09.106Z,4.65
2022-09-26T03:38:14.283Z,4.13
2022-09-26T03:43:24.316Z,2.20
2022-09-26T03:48:27.754Z,5.75
2022-09-26T03:53:32.579Z,4.50
2022-09-26T03:58:36.371Z,4.68
2022-09-26T04:03:49.945Z,5.47
2022-09-26T04:08:53.391Z,2.55
2022-09-26T04:13:59.569Z,3.35
2022-09-26T04:19:09.409Z,5.53
2022-09-26T04:24:16.279Z,3.88
2022-09-26T04:29:18.083Z,4.43
2022-09-26T04:34:45.947Z,2.45
2022-09-26T04:39:48.472Z,5.05
2022-09-26T04:44:50.163Z,2.53
2022-09-26T04:49:52.068Z,1.63
2022-09-26T04:54:53.782Z,3.58
2022-09-26T04:59:55.786Z,6.53
2022-09-26T05:05:00.666Z,3.38
2022-09-26T05:10:02.822Z,2.55
2022-09-26T05:15:10.430Z,4.75
2022-09-26T05:20:12.943Z,2.15
2022-09-26T05:25:39.796Z,4.03
2022-09-26T05:30:41.632Z,2.72
2022-09-26T05:35:44.043Z,3.85
2022-09-26T05:40:58.131Z,3.72
2022-09-26T05:46:05.295Z,4.28
2022-09-26T05:51:14.808Z,3.63
2022-09-26T05:56:19.768Z,2.40
2022-09-26T06:01:40.265Z,4.65
2022-09-26T06:06:56.081Z,3.10
2022-09-26T06:11:57.816Z,6.18
2022-09-26T06:16:59.733Z,4.93
2022-09-26T06:22:01.506Z,3.38
2022-09-26T06:27:04.511Z,6.32
2022-09-26T06:32:06.221Z,8.73
2022-09-26T06:37:43.360Z,7.35
2022-09-26T06:42:46.805Z,3.67
2022-09-26T06:48:02.710Z,6.63
2022-09-26T06:53:09.221Z,5.25
2022-09-26T06:58:10.974Z,6.20
2022-09-26T07:03:26.623Z,6.43
2022-09-26T07:09:01.034Z,3.95
2022-09-26T07:14:19.808Z,2.72
2022-09-26T07:19:36.839Z,6.30
2022-09-26T07:24:42.657Z,5.10
2022-09-26T07:30:05.208Z,4.47
2022-09-26T07:35:17.237Z,5.05
2022-09-26T07:40:21.200Z,4.10
2022-09-26T07:45:42.887Z,5.15
2022-09-26T07:50:46.396Z,3.58
2022-09-26T07:56:12.152Z,5.07
2022-09-26T08:01:52.801Z,9.00
2022-09-26T08:07:08.566Z,6.90
2022-09-26T08:12:15.136Z,4.97
2022-09-26T08:17:24.068Z,8.60
2022-09-26T08:22:26.950Z,6.72
2022-09-26T08:27:33.477Z,3.80
2022-09-26T08:32:35.256Z,6.10
2022-09-26T08:37:39.491Z,6.30
2022-09-26T08:43:38.716Z,3.97
2022-09-26T08:49:17.848Z,4.88
2022-09-26T08:54:37.759Z,4.10
2022-09-26T09:04:57.759Z,5.38
2022-09-26T09:10:06.315Z,5.18
2022-09-26T09:15:58.482Z,3.33
2022-09-26T09:21:10.499Z,2.65
2022-09-26T09:32:22.950Z,2.78
2022-09-26T09:37:43.124Z,2.90
2022-09-26T09:43:12.685Z,2.90
2022-09-26T09:48:15.736Z,3.38
2022-09-26T09:53:26.888Z,3.22
2022-09-26T09:58:39.034Z,2.83
2022-09-26T10:04:27.778Z,4.60
2022-09-26T10:09:40.697Z,1.48
2022-09-26T10:15:19.848Z,1.70
2022-09-26T10:20:43.006Z,5.10
2022-09-26T10:25:48.532Z,3.17
2022-09-26T10:30:55.578Z,3.13
2022-09-26T10:36:09.003Z,5.07
2022-09-26T10:41:23.866Z,9.23
2022-09-26T10:46:27.840Z,7.60
2022-09-26T10:51:55.483Z,8.30
2022-09-26T10:56:59.256Z,5.10
2022-09-26T11:02:05.573Z,15.68
2022-09-26T11:07:11.107Z,7.97
2022-09-26T11:12:25.468Z,8.80
2022-09-26T11:17:49.386Z,6.45
2022-09-26T11:23:15.197Z,7.45
2022-09-26T11:28:36.219Z,5.10
2022-09-26T11:34:04.489Z,8.75
2022-09-26T11:39:25.200Z,10.05
2022-09-26T11:44:51.255Z,10.73
2022-09-26T11:50:23.927Z,8.13
2022-09-26T11:56:19.958Z,6.43
2022-09-26T12:02:03.967Z,8.63
2022-09-26T12:07:33.618Z,10.10
2022-09-26T12:12:56.659Z,11.83
2022-09-26T12:18:07.416Z,7.43
2022-09-26T12:23:17.871Z,12.55
2022-09-26T12:28:50.414Z,10.30
2022-09-26T12:34:31.817Z,10.98
2022-09-26T12:39:52.289Z,9.15
2022-09-26T12:45:30.370Z,9.55
2022-09-26T12:50:53.001Z,9.02
2022-09-26T12:56:08.498Z,7.97
2022-09-26T13:01:32.492Z,9.65
2022-09-26T13:07:18.310Z,7.25
2022-09-26T13:12:31.065Z,8.48
2022-09-26T13:17:41.842Z,14.52
2022-09-26T13:22:53.060Z,10.68
2022-09-26T13:28:05.282Z,10.90
2022-09-26T13:33:31.876Z,18.63
2022-09-26T13:38:34.051Z,14.43
2022-09-26T13:43:53.581Z,14.90
2022-09-26T13:49:27.540Z,9.90
2022-09-26T13:54:55.027Z,12.20
2022-09-26T13:59:56.895Z,8.48
2022-09-26T14:05:01.234Z,7.93
2022-09-26T14:10:05.827Z,15.80
2022-09-26T14:15:47.795Z,8.48
2022-09-26T14:21:02.750Z,12.98
2022-09-26T14:26:07.122Z,12.43
2022-09-26T14:31:37.355Z,7.13
2022-09-26T14:36:39.541Z,4.80
2022-09-26T14:41:41.587Z,4.18
2022-09-26T14:46:43.772Z,2.33
2022-09-26T14:51:59.409Z,7.50
2022-09-26T14:57:04.343Z,8.65
2022-09-26T15:02:21.808Z,9.90
2022-09-26T15:07:45.388Z,5.70
2022-09-26T15:13:02.983Z,6.13
2022-09-26T15:18:18.323Z,7.30
2022-09-26T15:23:28.006Z,6.97
2022-09-26T15:28:34.626Z,8.50
2022-09-26T15:33:39.067Z,7.78
2022-09-26T15:38:45.123Z,10.38
2022-09-26T15:43:48.800Z,12.80
2022-09-26T15:48:52.000Z,10.30
2022-09-26T15:53:58.381Z,9.02
2022-09-26T15:59:17.873Z,8.10
2022-09-26T16:04:27.955Z,9.50
2022-09-26T16:09:40.144Z,9.27
2022-09-26T16:14:49.181Z,5.68
2022-09-26T16:19:54.285Z,5.50
2022-09-26T16:25:17.435Z,13.05
2022-09-26T16:30:27.869Z,5.20
2022-09-26T16:35:33.494Z,6.55
2022-09-26T16:40:35.820Z,7.90
2022-09-26T16:45:49.824Z,4.93
2022-09-26T16:51:13.665Z,8.85
2022-09-26T16:56:19.206Z,6.82
2022-09-26T17:01:40.786Z,7.25
2022-09-26T17:06:42.635Z,6.38
2022-09-26T17:11:49.186Z,8.30
2022-09-26T17:16:55.321Z,5.45
2022-09-26T17:21:57.211Z,7.80
2022-09-26T17:27:14.292Z,3.28
2022-09-26T17:32:25.207Z,5.50
2022-09-26T17:37:27.671Z,2.92
2022-09-26T17:42:38.858Z,5.25
2022-09-26T17:47:40.852Z,5.40
2022-09-26T17:52:42.691Z,7.72
2022-09-26T17:57:44.453Z,4.93
2022-09-26T18:02:55.285Z,5.82
2022-09-26T18:08:21.198Z,7.20
2022-09-26T18:13:38.175Z,8.00
2022-09-26T18:18:39.844Z,8.27
2022-09-26T18:23:50.337Z,5.88
2022-09-26T18:28:52.589Z,8.52
2022-09-26T18:33:56.006Z,5.03
2022-09-26T18:38:57.756Z,5.60
2022-09-26T18:44:02.115Z,10.85
2022-09-26T18:49:06.380Z,5.95
2022-09-26T18:54:17.433Z,7.65
2022-09-26T18:59:19.496Z,6.43
2022-09-26T19:04:22.935Z,10.85
2022-09-26T19:09:28.024Z,6.10
2022-09-26T19:14:31.374Z,5.13
2022-09-26T19:19:33.002Z,8.18
2022-09-26T19:24:48.880Z,6.47
2022-09-26T19:29:59.088Z,8.93
2022-09-26T19:35:02.880Z,7.03
2022-09-26T19:40:14.823Z,12.20
2022-09-26T19:45:18.273Z,12.48
2022-09-26T19:50:25.787Z,10.70
2022-09-26T19:55:29.672Z,5.88
2022-09-26T20:00:36.985Z,8.18
2022-09-26T20:05:39.416Z,8.95
2022-09-26T20:10:41.216Z,4.97
2022-09-26T20:15:43.767Z,4.22
2022-09-26T20:20:50.090Z,6.75
2022-09-26T20:25:53.918Z,7.50
2022-09-26T20:30:58.906Z,6.57
2022-09-26T20:36:04.663Z,6.43
2022-09-26T20:41:24.191Z,3.00
2022-09-26T20:46:28.261Z,5.68
2022-09-26T20:51:34.457Z,5.00
2022-09-26T20:56:36.894Z,4.07
2022-09-26T21:01:38.513Z,2.78
2022-09-26T21:06:40.870Z,6.18
2022-09-26T21:11:50.476Z,5.47
2022-09-26T21:16:52.631Z,5.78
2022-09-26T21:21:59.226Z,4.63
2022-09-26T21:27:14.344Z,3.45
2022-09-26T21:32:18.676Z,2.53
2022-09-26T21:37:20.253Z,2.92
2022-09-26T21:42:21.999Z,1.55
2022-09-26T21:47:24.661Z,1.98
2022-09-26T21:52:35.715Z,1.98
2022-09-26T21:57:42.151Z,1.83
2022-09-26T22:02:43.880Z,3.70
2022-09-26T22:07:45.500Z,2.45
2022-09-26T22:12:47.066Z,3.17
2022-09-26T22:17:48.887Z,2.55
2022-09-26T22:22:50.636Z,1.80
2022-09-26T22:27:52.279Z,3.75
2022-09-26T22:32:53.956Z,3.42
2022-09-26T22:37:56.730Z,2.42
2022-09-26T22:42:58.329Z,2.50
2022-09-26T22:48:00.253Z,1.73
2022-09-26T22:53:02.945Z,6.53
2022-09-26T22:58:04.716Z,3.40
2022-09-26T23:03:06.347Z,3.72
2022-09-26T23:08:07.931Z,1.23
2022-09-26T23:13:09.582Z,5.50
2022-09-26T23:18:12.581Z,2.42
2022-09-26T23:23:14.924Z,4.07
2022-09-26T23:28:17.579Z,5.40
2022-09-26T23:33:19.288Z,5.47
2022-09-26T23:38:20.904Z,8.80
2022-09-26T23:43:23.146Z,4.50
2022-09-26T23:48:24.780Z,4.20
2022-09-26T23:53:26.746Z,6.82
2022-09-26T23:58:28.599Z,3.05
